createdAt,value
2022-12-27T00:00:07.403Z,3.28
2022-12-27T00:02:38.863Z,2.90
2022-12-27T00:05:11.446Z,3.35
2022-12-27T00:07:43.945Z,3.00
2022-12-27T00:10:15.376Z,3.05
2022-12-27T00:12:46.803Z,2.53
2022-12-27T00:15:18.303Z,2.58
2022-12-27T00:17:49.764Z,2.40
2022-12-27T00:20:21.273Z,2.50
2022-12-27T00:22:52.724Z,2.88
2022-12-27T00:25:24.153Z,2.75
2022-12-27T00:27:55.681Z,2.40
2022-12-27T00:30:27.109Z,2.25
2022-12-27T00:32:58.545Z,2.70
2022-12-27T00:35:30.002Z,2.40
2022-12-27T00:38:01.393Z,2.67
2022-12-27T00:40:32.798Z,2.70
2022-12-27T00:43:04.197Z,3.15
2022-12-27T00:45:35.690Z,2.65
2022-12-27T00:48:07.170Z,2.75
2022-12-27T00:50:42.794Z,2.47
2022-12-27T00:53:14.630Z,2.75
2022-12-27T00:55:46.067Z,2.72
2022-12-27T00:58:17.512Z,3.30
2022-12-27T01:00:50.058Z,3.42
2022-12-27T01:03:21.527Z,3.17
2022-12-27T01:05:52.925Z,3.22
2022-12-27T01:08:24.340Z,3.30
2022-12-27T01:10:55.718Z,2.92
2022-12-27T01:13:27.128Z,3.00
2022-12-27T01:15:58.629Z,3.00
2022-12-27T01:18:30.123Z,2.83
2022-12-27T01:21:05.976Z,3.15
2022-12-27T01:23:38.139Z,3.63
2022-12-27T01:26:16.096Z,3.03
2022-12-27T01:28:48.388Z,3.75
2022-12-27T01:31:22.940Z,3.53
2022-12-27T01:33:57.376Z,3.55
2022-12-27T01:36:30.558Z,3.67
2022-12-27T01:39:02.003Z,3.83
2022-12-27T01:41:36.070Z,3.50
2022-12-27T01:44:38.383Z,3.80
2022-12-27T01:47:29.450Z,3.42
2022-12-27T01:50:18.889Z,3.10
2022-12-27T01:53:02.467Z,3.50
2022-12-27T01:55:33.844Z,3.17
2022-12-27T01:58:11.642Z,3.20
2022-12-27T02:00:45.308Z,3.00
2022-12-27T02:03:31.780Z,2.88
2022-12-27T02:06:05.653Z,3.58
2022-12-27T02:08:40.306Z,3.03
2022-12-27T02:11:13.693Z,3.80
2022-12-27T02:13:46.444Z,3.33
2022-12-27T02:16:19.971Z,3.00
2022-12-27T02:18:51.594Z,2.88
2022-12-27T02:21:25.787Z,3.33
2022-12-27T02:24:42.172Z,3.20
2022-12-27T02:27:27.020Z,3.10
2022-12-27T02:29:58.421Z,3.40
2022-12-27T02:32:38.780Z,2.92
2022-12-27T02:35:25.350Z,3.05
2022-12-27T02:38:10.478Z,2.80
2022-12-27T02:40:44.211Z,3.22
2022-12-27T02:43:16.681Z,2.50
2022-12-27T02:46:22.275Z,2.97
2022-12-27T02:48:56.619Z,2.97
2022-12-27T02:51:27.995Z,2.30
2022-12-27T02:54:26.032Z,2.53
2022-12-27T02:57:09.675Z,2.63
2022-12-27T03:00:02.559Z,2.67
2022-12-27T03:03:28.363Z,2.95
2022-12-27T03:06:05.691Z,2.53
2022-12-27T03:08:48.605Z,2.38
2022-12-27T03:11:20.723Z,2.50
2022-12-27T03:14:02.039Z,2.38
2022-12-27T03:16:45.812Z,2.10
2022-12-27T03:19:38.597Z,2.53
2022-12-27T03:22:11.897Z,2.70
2022-12-27T03:24:43.405Z,2.60
2022-12-27T03:27:28.906Z,2.53
2022-12-27T03:30:04.483Z,2.80
2022-12-27T03:32:43.502Z,2.67
2022-12-27T03:35:22.655Z,2.38
2022-12-27T03:37:59.132Z,2.30
2022-12-27T03:40:55.955Z,2.15
2022-12-27T03:43:28.365Z,2.40
2022-12-27T03:46:20.875Z,2.57
2022-12-27T03:49:23.234Z,2.20
2022-12-27T03:52:09.922Z,2.47
2022-12-27T03:54:44.149Z,2.13
2022-12-27T03:57:19.852Z,2.22
2022-12-27T03:59:51.360Z,2.50
2022-12-27T04:02:23.078Z,2.33
2022-12-27T04:04:54.599Z,2.42
2022-12-27T04:07:26.000Z,2.40
2022-12-27T04:09:57.429Z,2.22
2022-12-27T04:12:29.018Z,2.60
2022-12-27T04:15:00.435Z,2.70
2022-12-27T04:17:31.913Z,2.85
2022-12-27T04:20:03.504Z,2.50
2022-12-27T04:22:34.906Z,3.05
2022-12-27T04:25:06.468Z,2.78
2022-12-27T04:27:37.923Z,2.35
2022-12-27T04:30:10.003Z,2.53
2022-12-27T04:32:41.531Z,2.42
2022-12-27T04:35:13.037Z,2.22
2022-12-27T04:37:44.484Z,2.25
2022-12-27T04:40:15.901Z,2.38
2022-12-27T04:42:47.329Z,2.45
2022-12-27T04:45:18.790Z,1.90
2022-12-27T04:47:50.257Z,2.45
2022-12-27T04:50:31.292Z,2.60
2022-12-27T04:53:02.684Z,2.43
2022-12-27T04:55:34.148Z,2.35
2022-12-27T04:58:05.557Z,2.25
2022-12-27T05:00:37.050Z,2.33
2022-12-27T05:03:12.240Z,2.60
2022-12-27T05:05:44.868Z,3.10
2022-12-27T05:08:17.986Z,2.83
2022-12-27T05:10:49.540Z,2.45
2022-12-27T05:13:20.978Z,2.63
2022-12-27T05:15:52.645Z,2.72
2022-12-27T05:18:24.719Z,2.58
2022-12-27T05:21:02.157Z,2.25
2022-12-27T05:23:34.692Z,2.23
2022-12-27T05:26:06.134Z,2.30
2022-12-27T05:28:37.546Z,2.27
2022-12-27T05:31:09.040Z,2.45
2022-12-27T05:33:40.483Z,2.42
2022-12-27T05:36:11.939Z,2.70
2022-12-27T05:38:43.386Z,2.10
2022-12-27T05:41:16.109Z,2.33
2022-12-27T05:43:48.036Z,2.60
2022-12-27T05:46:21.657Z,2.53
2022-12-27T05:48:53.072Z,2.67
2022-12-27T05:51:24.490Z,2.87
2022-12-27T05:53:56.250Z,2.30
2022-12-27T05:56:30.743Z,2.65
2022-12-27T05:59:02.127Z,2.33
2022-12-27T06:01:34.138Z,2.50
2022-12-27T06:04:05.677Z,2.30
2022-12-27T06:06:37.095Z,2.75
2022-12-27T06:09:08.559Z,2.63
2022-12-27T06:11:40.052Z,2.95
2022-12-27T06:14:11.469Z,2.30
2022-12-27T06:16:43.114Z,2.53
2022-12-27T06:19:14.681Z,2.22
2022-12-27T06:21:46.333Z,2.60
2022-12-27T06:24:17.966Z,2.45
2022-12-27T06:26:50.527Z,2.28
2022-12-27T06:29:21.958Z,2.28
2022-12-27T06:31:53.471Z,2.20
2022-12-27T06:34:25.030Z,2.55
2022-12-27T06:36:56.536Z,2.47
2022-12-27T06:39:28.054Z,2.60
2022-12-27T06:41:59.596Z,2.60
2022-12-27T06:44:31.041Z,2.30
2022-12-27T06:47:03.140Z,2.20
2022-12-27T06:49:34.542Z,2.45
2022-12-27T06:52:06.015Z,2.40
2022-12-27T06:54:37.443Z,2.45
2022-12-27T06:57:08.871Z,2.65
2022-12-27T06:59:40.338Z,2.77
2022-12-27T07:02:11.898Z,2.22
2022-12-27T07:04:43.426Z,2.53
2022-12-27T07:07:15.983Z,2.58
2022-12-27T07:09:47.633Z,2.50
2022-12-27T07:12:19.225Z,2.50
2022-12-27T07:14:50.615Z,3.00
2022-12-27T07:17:22.096Z,2.78
2022-12-27T07:19:53.508Z,2.70
2022-12-27T07:22:24.933Z,3.08
2022-12-27T07:24:56.386Z,2.92
2022-12-27T07:27:27.829Z,2.90
2022-12-27T07:29:59.267Z,2.92
2022-12-27T07:32:30.892Z,2.70
2022-12-27T07:35:02.398Z,2.60
2022-12-27T07:37:33.821Z,2.58
2022-12-27T07:40:05.817Z,2.42
2022-12-27T07:42:37.266Z,2.42
2022-12-27T07:45:09.001Z,2.65
2022-12-27T07:47:40.452Z,2.40
2022-12-27T07:50:11.917Z,2.50
2022-12-27T07:52:43.896Z,2.67
2022-12-27T07:55:15.528Z,3.00
2022-12-27T07:57:46.975Z,2.70
2022-12-27T08:00:18.603Z,2.65
2022-12-27T08:02:50.050Z,2.72
2022-12-27T08:05:25.873Z,2.58
2022-12-27T08:07:59.025Z,3.20
2022-12-27T08:10:30.515Z,2.58
2022-12-27T08:13:02.064Z,2.80
2022-12-27T08:15:33.902Z,3.27
2022-12-27T08:18:05.827Z,3.17
2022-12-27T08:20:37.351Z,2.85
2022-12-27T08:23:08.764Z,3.23
2022-12-27T08:25:46.715Z,3.45
2022-12-27T08:28:20.070Z,3.10
2022-12-27T08:30:51.509Z,3.20
2022-12-27T08:33:23.019Z,3.50
2022-12-27T08:35:55.201Z,3.60
2022-12-27T08:38:26.743Z,3.40
2022-12-27T08:40:58.247Z,3.33
2022-12-27T08:43:29.791Z,3.50
2022-12-27T08:46:02.916Z,3.47
2022-12-27T08:48:34.372Z,3.75
2022-12-27T08:51:12.583Z,3.40
2022-12-27T08:53:49.196Z,3.65
2022-12-27T08:56:20.626Z,3.58
2022-12-27T08:58:52.112Z,3.28
2022-12-27T09:01:23.675Z,3.88
2022-12-27T09:03:55.182Z,3.53
2022-12-27T09:06:26.706Z,3.50
2022-12-27T09:08:58.493Z,4.07
2022-12-27T09:11:32.484Z,3.78
2022-12-27T09:14:05.170Z,3.78
2022-12-27T09:16:36.674Z,3.35
2022-12-27T09:19:08.219Z,3.40
2022-12-27T09:21:41.343Z,3.85
2022-12-27T09:24:14.289Z,3.55
2022-12-27T09:26:45.712Z,3.67
2022-12-27T09:29:17.201Z,3.75
2022-12-27T09:31:48.684Z,3.97
2022-12-27T09:34:20.132Z,3.63
2022-12-27T09:36:51.625Z,4.20
2022-12-27T09:39:24.432Z,3.53
2022-12-27T09:42:50.732Z,3.93
2022-12-27T09:45:37.623Z,4.03
2022-12-27T09:48:17.430Z,3.08
2022-12-27T09:50:58.035Z,3.40
2022-12-27T09:53:46.092Z,3.40
2022-12-27T09:56:35.671Z,3.38
2022-12-27T09:59:24.950Z,3.53
2022-12-27T10:01:56.489Z,3.42
2022-12-27T10:05:09.906Z,3.42
2022-12-27T10:07:45.010Z,3.30
2022-12-27T10:10:51.351Z,3.30
2022-12-27T10:13:29.466Z,3.35
2022-12-27T10:16:17.898Z,4.10
2022-12-27T10:19:21.566Z,3.67
2022-12-27T10:22:30.519Z,3.60
2022-12-27T10:25:13.877Z,4.03
2022-12-27T10:27:47.883Z,3.80
2022-12-27T10:30:21.845Z,3.63
2022-12-27T10:32:54.480Z,3.03
2022-12-27T10:35:26.361Z,3.60
2022-12-27T10:37:57.966Z,3.40
2022-12-27T10:40:40.043Z,3.25
2022-12-27T10:43:43.059Z,3.10
2022-12-27T10:46:21.828Z,3.60
2022-12-27T10:51:58.835Z,3.20
2022-12-27T10:54:30.412Z,3.38
2022-12-27T10:57:28.235Z,3.70
2022-12-27T11:00:16.009Z,3.90
2022-12-27T11:02:56.325Z,3.35
2022-12-27T11:05:34.315Z,3.50
2022-12-27T11:08:20.263Z,3.83
2022-12-27T11:11:12.245Z,3.75
2022-12-27T11:13:44.335Z,3.60
2022-12-27T11:16:30.577Z,3.70
2022-12-27T11:19:04.118Z,3.70
2022-12-27T11:21:43.369Z,4.40
2022-12-27T11:24:19.558Z,3.42
2022-12-27T11:26:59.169Z,3.70
2022-12-27T11:29:34.850Z,3.85
2022-12-27T11:32:08.637Z,3.45
2022-12-27T11:34:45.451Z,3.93
2022-12-27T11:37:20.709Z,4.00
2022-12-27T11:40:20.291Z,3.78
2022-12-27T11:43:16.240Z,4.07
2022-12-27T11:45:51.419Z,3.70
2022-12-27T11:48:33.539Z,4.20
2022-12-27T11:51:40.741Z,4.00
2022-12-27T11:54:32.850Z,4.15
2022-12-27T11:57:30.344Z,4.40
2022-12-27T12:00:17.329Z,3.70
2022-12-27T12:02:57.802Z,4.38
2022-12-27T12:05:35.425Z,3.53
2022-12-27T12:09:12.814Z,3.72
2022-12-27T12:11:54.952Z,3.70
2022-12-27T12:14:58.959Z,3.80
2022-12-27T12:18:08.494Z,4.30
2022-12-27T12:21:26.101Z,3.70
2022-12-27T12:24:38.837Z,4.03
2022-12-27T12:27:23.818Z,3.87
2022-12-27T12:30:11.609Z,4.40
2022-12-27T12:32:54.845Z,4.00
2022-12-27T12:35:48.194Z,3.97
2022-12-27T12:38:30.314Z,3.67
2022-12-27T12:41:33.755Z,4.00
2022-12-27T12:44:30.501Z,3.83
2022-12-27T12:47:32.813Z,4.32
2022-12-27T12:50:34.008Z,3.50
2022-12-27T12:53:40.409Z,3.65
2022-12-27T12:56:43.107Z,3.42
2022-12-27T12:59:37.116Z,3.70
2022-12-27T13:02:26.951Z,3.92
2022-12-27T13:05:12.745Z,3.47
2022-12-27T13:08:05.758Z,3.88
2022-12-27T13:11:17.923Z,3.30
2022-12-27T13:14:07.917Z,3.65
2022-12-27T13:17:02.550Z,3.90
2022-12-27T13:19:41.407Z,3.67
2022-12-27T13:22:38.011Z,4.07
2022-12-27T13:25:24.286Z,3.92
2022-12-27T13:28:46.168Z,3.70
2022-12-27T13:31:55.180Z,3.47
2022-12-27T13:34:38.472Z,3.67
2022-12-27T13:37:16.064Z,3.28
2022-12-27T13:40:15.695Z,3.22
2022-12-27T13:43:06.287Z,3.00
2022-12-27T13:46:05.518Z,2.80
2022-12-27T13:49:06.201Z,3.03
2022-12-27T13:51:45.142Z,3.30
2022-12-27T13:54:40.596Z,2.92
2022-12-27T13:57:30.625Z,3.20
2022-12-27T14:00:15.798Z,3.17
2022-12-27T14:03:11.157Z,3.53
2022-12-27T14:06:21.124Z,3.20
2022-12-27T14:09:35.569Z,3.63
2022-12-27T14:12:40.458Z,3.27
2022-12-27T14:15:18.985Z,3.65
2022-12-27T14:17:57.544Z,2.95
2022-12-27T14:20:59.732Z,3.13
2022-12-27T14:23:44.092Z,3.35
2022-12-27T14:26:40.204Z,3.60
2022-12-27T14:29:45.763Z,3.63
2022-12-27T14:33:03.287Z,4.05
2022-12-27T14:35:43.488Z,4.47
2022-12-27T14:38:45.994Z,4.00
2022-12-27T14:41:32.364Z,4.20
2022-12-27T14:44:35.009Z,4.50
2022-12-27T14:47:58.823Z,4.22
2022-12-27T14:51:58.649Z,4.30
2022-12-27T14:54:40.363Z,4.30
2022-12-27T14:57:20.760Z,4.00
2022-12-27T15:00:12.804Z,4.65
2022-12-27T15:02:50.208Z,4.72
2022-12-27T15:05:43.635Z,5.00
2022-12-27T15:08:21.090Z,4.83
2022-12-27T15:11:04.400Z,5.00
2022-12-27T15:14:06.670Z,4.80
2022-12-27T15:16:45.512Z,5.10
2022-12-27T15:19:41.626Z,4.85
2022-12-27T15:22:41.254Z,5.03
2022-12-27T15:25:18.758Z,5.15
2022-12-27T15:28:08.684Z,5.35
2022-12-27T15:30:56.023Z,5.10
2022-12-27T15:33:38.040Z,5.22
2022-12-27T15:36:14.931Z,4.95
2022-12-27T15:38:53.877Z,5.15
2022-12-27T15:41:32.128Z,4.70
2022-12-27T15:44:03.565Z,4.80
2022-12-27T15:47:09.271Z,4.55
2022-12-27T15:49:59.787Z,5.18
2022-12-27T15:52:31.205Z,5.07
2022-12-27T15:55:18.034Z,4.80
2022-12-27T15:58:14.948Z,4.40
2022-12-27T16:01:21.844Z,4.80
2022-12-27T16:03:57.324Z,4.73
2022-12-27T16:06:34.616Z,4.90
2022-12-27T16:09:24.505Z,5.43
2022-12-27T16:12:12.435Z,5.35
2022-12-27T16:14:44.246Z,4.90
2022-12-27T16:17:37.289Z,5.10
2022-12-27T16:20:22.577Z,5.13
2022-12-27T16:22:57.981Z,5.35
2022-12-27T16:25:41.682Z,5.18
2022-12-27T16:28:16.191Z,5.10
2022-12-27T16:30:50.441Z,5.35
2022-12-27T16:33:28.077Z,5.13
2022-12-27T16:36:11.944Z,5.43
2022-12-27T16:38:55.282Z,4.70
2022-12-27T16:41:54.936Z,5.60
2022-12-27T16:44:41.636Z,5.22
2022-12-27T16:47:31.929Z,5.10
2022-12-27T16:50:40.524Z,4.80
2022-12-27T16:53:30.780Z,5.50
2022-12-27T16:56:18.631Z,4.90
2022-12-27T16:58:50.811Z,4.60
2022-12-27T17:01:49.633Z,4.93
2022-12-27T17:05:06.546Z,5.10
2022-12-27T17:07:48.644Z,5.05
2022-12-27T17:10:28.926Z,4.97
2022-12-27T17:13:23.425Z,4.55
2022-12-27T17:16:17.883Z,4.65
2022-12-27T17:19:00.167Z,5.03
2022-12-27T17:21:35.373Z,4.65
2022-12-27T17:24:18.462Z,4.70
2022-12-27T17:27:19.826Z,4.80
2022-12-27T17:30:18.816Z,5.10
2022-12-27T17:33:27.811Z,4.45
2022-12-27T17:36:31.840Z,4.50
2022-12-27T17:39:45.201Z,4.53
2022-12-27T17:42:54.956Z,4.32
2022-12-27T17:46:10.503Z,4.82
2022-12-27T17:48:42.399Z,4.15
2022-12-27T17:51:20.638Z,4.30
2022-12-27T17:53:54.214Z,4.22
2022-12-27T17:56:25.948Z,3.78
2022-12-27T17:59:40.410Z,4.28
2022-12-27T18:02:11.941Z,4.32
2022-12-27T18:04:50.570Z,4.57
2022-12-27T18:07:25.171Z,3.92
2022-12-27T18:10:24.024Z,4.65
2022-12-27T18:12:59.219Z,4.63
2022-12-27T18:15:35.580Z,5.10
2022-12-27T18:18:09.154Z,5.25
2022-12-27T18:20:42.065Z,4.70
2022-12-27T18:23:18.200Z,4.40
2022-12-27T18:25:51.437Z,4.13
2022-12-27T18:28:32.236Z,4.40
2022-12-27T18:31:28.633Z,4.47
2022-12-27T18:34:17.878Z,4.20
2022-12-27T18:37:06.368Z,4.45
2022-12-27T18:39:46.916Z,4.43
2022-12-27T18:42:26.940Z,5.00
2022-12-27T18:45:03.678Z,4.78
2022-12-27T18:47:39.856Z,4.47
2022-12-27T18:50:21.463Z,4.20
2022-12-27T18:53:04.315Z,4.15
2022-12-27T18:55:36.072Z,4.65
2022-12-27T18:58:20.486Z,4.32
2022-12-27T19:01:24.741Z,4.22
2022-12-27T19:04:16.502Z,4.20
2022-12-27T19:07:04.557Z,4.45
2022-12-27T19:09:59.061Z,4.18
2022-12-27T19:12:38.210Z,3.90
2022-12-27T19:15:37.107Z,4.53
2022-12-27T19:18:28.019Z,4.50
2022-12-27T19:21:02.188Z,5.15
2022-12-27T19:23:39.137Z,4.20
2022-12-27T19:26:16.425Z,4.80
2022-12-27T19:29:13.074Z,4.97
2022-12-27T19:31:53.590Z,4.23
2022-12-27T19:34:28.948Z,4.63
2022-12-27T19:37:00.460Z,5.10
2022-12-27T19:39:35.370Z,4.70
2022-12-27T19:42:12.071Z,4.97
2022-12-27T19:44:43.570Z,4.82
2022-12-27T19:47:15.026Z,5.00
2022-12-27T19:49:46.488Z,5.10
2022-12-27T19:52:20.773Z,4.60
2022-12-27T19:55:00.244Z,4.82
2022-12-27T19:57:31.733Z,4.43
2022-12-27T20:00:10.276Z,5.22
2022-12-27T20:02:44.214Z,4.87
2022-12-27T20:05:15.835Z,4.93
2022-12-27T20:07:47.410Z,4.90
2022-12-27T20:10:19.181Z,5.47
2022-12-27T20:12:50.600Z,5.20
2022-12-27T20:15:22.006Z,4.53
2022-12-27T20:17:53.459Z,4.97
2022-12-27T20:20:24.858Z,4.57
2022-12-27T20:22:56.303Z,5.00
2022-12-27T20:25:27.736Z,4.25
2022-12-27T20:27:59.264Z,4.25
2022-12-27T20:30:30.821Z,4.40
2022-12-27T20:33:02.221Z,4.32
2022-12-27T20:35:33.738Z,4.57
2022-12-27T20:38:05.829Z,5.03
2022-12-27T20:40:37.500Z,4.43
2022-12-27T20:43:08.941Z,3.97
2022-12-27T20:45:40.408Z,4.63
2022-12-27T20:48:12.037Z,4.18
2022-12-27T20:50:43.454Z,4.55
2022-12-27T20:53:14.916Z,4.35
2022-12-27T20:55:56.834Z,4.70
2022-12-27T20:58:28.255Z,4.22
2022-12-27T21:01:13.788Z,3.78
2022-12-27T21:03:45.779Z,4.25
2022-12-27T21:06:20.300Z,4.30
2022-12-27T21:08:56.750Z,4.47
2022-12-27T21:11:31.716Z,4.63
2022-12-27T21:14:04.774Z,4.40
2022-12-27T21:16:36.240Z,4.22
2022-12-27T21:19:07.998Z,4.43
2022-12-27T21:21:39.659Z,3.90
2022-12-27T21:24:11.127Z,4.43
2022-12-27T21:26:43.222Z,4.20
2022-12-27T21:29:14.747Z,4.83
2022-12-27T21:31:46.207Z,4.38
2022-12-27T21:34:17.668Z,4.53
2022-12-27T21:36:51.009Z,4.60
2022-12-27T21:39:22.455Z,4.70
2022-12-27T21:41:53.893Z,5.28
2022-12-27T21:44:25.366Z,4.53
2022-12-27T21:46:56.853Z,4.38
2022-12-27T21:49:28.311Z,4.40
2022-12-27T21:51:59.713Z,5.05
2022-12-27T21:54:31.108Z,4.85
2022-12-27T21:57:02.588Z,4.80
2022-12-27T21:59:34.017Z,5.10
2022-12-27T22:02:05.565Z,5.15
2022-12-27T22:04:37.071Z,5.47
2022-12-27T22:07:08.492Z,4.70
2022-12-27T22:09:39.936Z,5.25
2022-12-27T22:12:11.362Z,5.50
2022-12-27T22:14:42.774Z,4.70
2022-12-27T22:17:14.184Z,4.80
2022-12-27T22:19:45.590Z,4.70
2022-12-27T22:22:17.020Z,5.03
2022-12-27T22:24:48.487Z,4.60
2022-12-27T22:27:19.956Z,5.10
2022-12-27T22:29:51.435Z,4.90
2022-12-27T22:32:22.892Z,4.93
2022-12-27T22:34:54.343Z,5.00
2022-12-27T22:37:25.801Z,4.60
2022-12-27T22:39:57.214Z,5.20
2022-12-27T22:42:28.608Z,4.60
2022-12-27T22:45:00.003Z,4.47
2022-12-27T22:47:31.458Z,5.50
2022-12-27T22:50:02.987Z,5.05
2022-12-27T22:52:34.457Z,4.87
2022-12-27T22:55:07.141Z,5.05
2022-12-27T22:57:39.330Z,5.18
2022-12-27T23:00:14.360Z,4.93
2022-12-27T23:02:45.859Z,5.10
2022-12-27T23:05:17.364Z,4.77
2022-12-27T23:08:05.146Z,5.32
2022-12-27T23:10:38.228Z,5.77
2022-12-27T23:13:09.651Z,5.22
2022-12-27T23:15:41.153Z,5.47
2022-12-27T23:18:12.643Z,5.03
2022-12-27T23:21:20.538Z,5.30
2022-12-27T23:23:36.403Z,5.20
2022-12-27T23:26:13.296Z,5.28
2022-12-27T23:28:46.619Z,4.93
2022-12-27T23:31:19.880Z,5.53
2022-12-27T23:33:52.392Z,5.43
2022-12-27T23:36:24.163Z,5.50
2022-12-27T23:38:55.585Z,5.93
2022-12-27T23:41:27.033Z,5.78
2022-12-27T23:44:00.476Z,6.00
2022-12-27T23:46:34.178Z,5.35
2022-12-27T23:49:05.676Z,5.88
2022-12-27T23:51:37.157Z,5.88
2022-12-27T23:54:08.590Z,6.22
2022-12-27T23:56:40.054Z,6.50
2022-12-27T23:59:11.524Z,6.25
